sensor_id;sensor_type;location;lat;lon;timestamp;noise_LAeq;noise_LA_min;noise_LA_max;noise_LA01;noise_LA95
11999;Laerm;40817;51.520;9.954;2023-01-19T00:00:54;44.32;41.03;49.69;;
11999;Laerm;40817;51.520;9.954;2023-01-19T00:03:22;44.73;41.06;52.86;;
11999;Laerm;40817;51.520;9.954;2023-01-19T00:05:50;45.01;41.06;56.68;;
11999;Laerm;40817;51.520;9.954;2023-01-19T00:08:18;43.92;40.80;46.18;;
11999;Laerm;40817;51.520;9.954;2023-01-19T00:10:48;43.37;40.43;56.35;;
11999;Laerm;40817;51.520;9.954;2023-01-19T00:13:18;43.32;40.03;45.54;;
11999;Laerm;40817;51.520;9.954;2023-01-19T00:15:46;43.15;40.03;46.10;;
11999;Laerm;40817;51.520;9.954;2023-01-19T00:18:13;43.57;40.33;47.83;;
11999;Laerm;40817;51.520;9.954;2023-01-19T00:20:43;43.90;40.33;47.08;;
11999;Laerm;40817;51.520;9.954;2023-01-19T00:23:12;44.22;41.22;46.76;;
11999;Laerm;40817;51.520;9.954;2023-01-19T00:25:40;45.62;41.06;57.88;;
11999;Laerm;40817;51.520;9.954;2023-01-19T00:28:09;44.58;41.38;48.52;;
11999;Laerm;40817;51.520;9.954;2023-01-19T00:30:39;44.30;40.71;49.50;;
11999;Laerm;40817;51.520;9.954;2023-01-19T00:33:07;44.00;41.14;46.06;;
11999;Laerm;40817;51.520;9.954;2023-01-19T00:35:35;44.46;41.38;49.70;;
11999;Laerm;40817;51.520;9.954;2023-01-19T00:38:03;44.33;41.30;46.35;;
11999;Laerm;40817;51.520;9.954;2023-01-19T00:40:31;44.10;41.46;45.89;;
11999;Laerm;40817;51.520;9.954;2023-01-19T00:42:58;44.27;41.48;48.03;;
11999;Laerm;40817;51.520;9.954;2023-01-19T00:45:26;44.19;41.14;48.98;;
11999;Laerm;40817;51.520;9.954;2023-01-19T00:47:55;44.02;40.53;47.18;;
11999;Laerm;40817;51.520;9.954;2023-01-19T00:50:24;43.67;40.62;47.76;;
11999;Laerm;40817;51.520;9.954;2023-01-19T00:52:53;43.62;40.03;51.11;;
11999;Laerm;40817;51.520;9.954;2023-01-19T00:55:22;44.72;41.06;54.27;;
11999;Laerm;40817;51.520;9.954;2023-01-19T00:57:50;43.62;40.80;45.54;;
11999;Laerm;40817;51.520;9.954;2023-01-19T01:00:19;44.15;41.61;52.06;;
11999;Laerm;40817;51.520;9.954;2023-01-19T01:02:49;43.69;40.89;56.18;;
11999;Laerm;40817;51.520;9.954;2023-01-19T01:05:20;43.50;39.92;45.80;;
11999;Laerm;40817;51.520;9.954;2023-01-19T01:07:49;43.60;40.13;45.17;;
11999;Laerm;40817;51.520;9.954;2023-01-19T01:10:20;43.98;41.30;47.30;;
11999;Laerm;40817;51.520;9.954;2023-01-19T01:12:49;44.56;41.89;49.03;;
11999;Laerm;40817;51.520;9.954;2023-01-19T01:15:18;44.66;41.53;51.37;;
11999;Laerm;40817;51.520;9.954;2023-01-19T01:17:46;44.21;40.53;46.82;;
11999;Laerm;40817;51.520;9.954;2023-01-19T01:20:19;44.17;40.71;46.38;;
11999;Laerm;40817;51.520;9.954;2023-01-19T01:22:50;45.41;42.03;55.01;;
11999;Laerm;40817;51.520;9.954;2023-01-19T01:25:21;44.55;41.46;54.88;;
11999;Laerm;40817;51.520;9.954;2023-01-19T01:27:49;43.94;41.30;46.28;;
11999;Laerm;40817;51.520;9.954;2023-01-19T01:30:18;43.86;41.22;45.97;;
11999;Laerm;40817;51.520;9.954;2023-01-19T01:32:46;43.87;40.98;45.89;;
11999;Laerm;40817;51.520;9.954;2023-01-19T01:35:15;43.60;40.13;45.54;;
11999;Laerm;40817;51.520;9.954;2023-01-19T01:37:44;44.13;40.98;49.50;;
11999;Laerm;40817;51.520;9.954;2023-01-19T01:40:16;43.87;40.80;45.97;;
11999;Laerm;40817;51.520;9.954;2023-01-19T01:42:45;44.10;40.98;49.65;;
11999;Laerm;40817;51.520;9.954;2023-01-19T01:45:31;43.84;41.06;45.86;;
11999;Laerm;40817;51.520;9.954;2023-01-19T01:48:05;43.50;40.43;45.17;;
11999;Laerm;40817;51.520;9.954;2023-01-19T01:50:40;43.44;40.98;49.08;;
11999;Laerm;40817;51.520;9.954;2023-01-19T01:53:35;45.04;40.80;55.04;;
11999;Laerm;40817;51.520;9.954;2023-01-19T01:56:10;43.89;40.71;52.89;;
11999;Laerm;40817;51.520;9.954;2023-01-19T01:58:39;44.04;40.43;47.30;;
11999;Laerm;40817;51.520;9.954;2023-01-19T02:01:08;43.57;40.71;48.51;;
11999;Laerm;40817;51.520;9.954;2023-01-19T02:03:54;43.63;39.92;47.06;;
11999;Laerm;40817;51.520;9.954;2023-01-19T02:06:23;43.48;39.58;56.03;;
11999;Laerm;40817;51.520;9.954;2023-01-19T02:08:58;43.68;40.80;45.75;;
11999;Laerm;40817;51.520;9.954;2023-01-19T02:11:46;43.90;40.89;48.31;;
11999;Laerm;40817;51.520;9.954;2023-01-19T02:14:33;43.67;40.62;57.47;;
11999;Laerm;40817;51.520;9.954;2023-01-19T02:17:02;43.13;39.46;47.91;;
11999;Laerm;40817;51.520;9.954;2023-01-19T02:19:36;44.36;40.03;54.66;;
11999;Laerm;40817;51.520;9.954;2023-01-19T02:22:14;43.17;39.46;45.97;;
11999;Laerm;40817;51.520;9.954;2023-01-19T02:24:46;53.58;40.03;67.20;;
11999;Laerm;40817;51.520;9.954;2023-01-19T02:27:15;52.62;40.23;67.23;;
11999;Laerm;40817;51.520;9.954;2023-01-19T02:29:45;54.83;40.43;69.40;;
11999;Laerm;40817;51.520;9.954;2023-01-19T02:32:13;43.81;40.33;51.52;;
11999;Laerm;40817;51.520;9.954;2023-01-19T02:34:40;44.01;40.33;47.04;;
11999;Laerm;40817;51.520;9.954;2023-01-19T02:37:14;44.10;41.46;45.86;;
11999;Laerm;40817;51.520;9.954;2023-01-19T02:39:50;43.87;40.03;45.86;;
11999;Laerm;40817;51.520;9.954;2023-01-19T02:42:24;44.17;38.52;53.73;;
11999;Laerm;40817;51.520;9.954;2023-01-19T02:44:55;44.48;40.98;50.07;;
11999;Laerm;40817;51.520;9.954;2023-01-19T02:47:23;44.75;40.98;51.29;;
11999;Laerm;40817;51.520;9.954;2023-01-19T02:49:58;44.20;40.62;50.18;;
11999;Laerm;40817;51.520;9.954;2023-01-19T02:52:26;43.79;40.80;46.45;;
11999;Laerm;40817;51.520;9.954;2023-01-19T02:55:05;43.85;40.43;46.43;;
11999;Laerm;40817;51.520;9.954;2023-01-19T02:57:52;43.63;40.13;46.13;;
11999;Laerm;40817;51.520;9.954;2023-01-19T03:00:34;43.19;39.81;45.07;;
11999;Laerm;40817;51.520;9.954;2023-01-19T03:03:22;45.11;41.06;64.36;;
11999;Laerm;40817;51.520;9.954;2023-01-19T03:06:01;43.56;40.89;45.33;;
11999;Laerm;40817;51.520;9.954;2023-01-19T03:08:42;43.62;40.71;45.39;;
11999;Laerm;40817;51.520;9.954;2023-01-19T03:11:15;43.92;40.71;46.67;;
11999;Laerm;40817;51.520;9.954;2023-01-19T03:13:49;43.82;40.43;53.15;;
11999;Laerm;40817;51.520;9.954;2023-01-19T03:16:22;43.75;40.23;47.63;;
11999;Laerm;40817;51.520;9.954;2023-01-19T03:18:57;43.60;40.53;45.57;;
11999;Laerm;40817;51.520;9.954;2023-01-19T03:21:28;43.64;40.53;45.54;;
11999;Laerm;40817;51.520;9.954;2023-01-19T03:24:02;44.60;40.96;51.88;;
11999;Laerm;40817;51.520;9.954;2023-01-19T03:26:44;44.23;40.89;48.39;;
11999;Laerm;40817;51.520;9.954;2023-01-19T03:29:15;47.12;41.22;61.28;;
11999;Laerm;40817;51.520;9.954;2023-01-19T03:31:45;43.93;40.53;47.52;;
11999;Laerm;40817;51.520;9.954;2023-01-19T03:34:15;43.90;40.33;47.96;;
11999;Laerm;40817;51.520;9.954;2023-01-19T03:36:48;44.14;41.53;46.30;;
11999;Laerm;40817;51.520;9.954;2023-01-19T03:39:21;44.38;41.22;53.42;;
11999;Laerm;40817;51.520;9.954;2023-01-19T03:41:55;44.36;40.80;50.73;;
11999;Laerm;40817;51.520;9.954;2023-01-19T03:44:25;44.24;41.06;51.02;;
11999;Laerm;40817;51.520;9.954;2023-01-19T03:46:54;44.39;40.71;59.86;;
11999;Laerm;40817;51.520;9.954;2023-01-19T03:49:23;48.58;41.61;64.44;;
11999;Laerm;40817;51.520;9.954;2023-01-19T03:51:54;44.33;40.80;46.43;;
11999;Laerm;40817;51.520;9.954;2023-01-19T03:54:22;44.98;41.96;51.53;;
11999;Laerm;40817;51.520;9.954;2023-01-19T03:56:51;44.09;41.22;47.70;;
11999;Laerm;40817;51.520;9.954;2023-01-19T03:59:19;43.94;41.61;46.59;;
11999;Laerm;40817;51.520;9.954;2023-01-19T04:01:47;43.76;40.13;45.99;;
11999;Laerm;40817;51.520;9.954;2023-01-19T04:04:34;44.36;41.22;47.24;;
11999;Laerm;40817;51.520;9.954;2023-01-19T04:07:21;46.35;42.74;54.81;;
11999;Laerm;40817;51.520;9.954;2023-01-19T04:09:49;47.44;41.38;63.74;;
11999;Laerm;40817;51.520;9.954;2023-01-19T04:12:19;49.16;42.03;64.27;;
11999;Laerm;40817;51.520;9.954;2023-01-19T04:14:47;44.22;41.22;47.81;;
11999;Laerm;40817;51.520;9.954;2023-01-19T04:17:15;44.47;41.53;48.84;;
11999;Laerm;40817;51.520;9.954;2023-01-19T04:19:42;44.38;41.53;51.62;;
11999;Laerm;40817;51.520;9.954;2023-01-19T04:22:11;44.49;41.14;53.51;;
11999;Laerm;40817;51.520;9.954;2023-01-19T04:24:38;44.41;41.53;46.62;;
11999;Laerm;40817;51.520;9.954;2023-01-19T04:27:06;45.27;41.55;57.21;;
11999;Laerm;40817;51.520;9.954;2023-01-19T04:29:35;45.00;41.82;53.29;;
11999;Laerm;40817;51.520;9.954;2023-01-19T04:32:03;44.78;41.89;52.88;;
11999;Laerm;40817;51.520;9.954;2023-01-19T04:34:30;44.61;42.47;47.46;;
11999;Laerm;40817;51.520;9.954;2023-01-19T04:36:58;44.32;42.03;46.20;;
11999;Laerm;40817;51.520;9.954;2023-01-19T04:39:28;45.68;42.35;55.70;;
11999;Laerm;40817;51.520;9.954;2023-01-19T04:41:57;44.46;41.96;48.29;;
11999;Laerm;40817;51.520;9.954;2023-01-19T04:44:26;44.48;42.16;47.16;;
11999;Laerm;40817;51.520;9.954;2023-01-19T04:46:54;44.60;42.53;50.03;;
11999;Laerm;40817;51.520;9.954;2023-01-19T04:49:28;44.33;41.30;48.71;;
11999;Laerm;40817;51.520;9.954;2023-01-19T04:51:56;44.21;41.82;45.72;;
11999;Laerm;40817;51.520;9.954;2023-01-19T04:54:23;44.34;41.46;46.25;;
11999;Laerm;40817;51.520;9.954;2023-01-19T04:56:52;44.37;41.61;47.72;;
11999;Laerm;40817;51.520;9.954;2023-01-19T04:59:19;44.73;41.96;48.78;;
11999;Laerm;40817;51.520;9.954;2023-01-19T05:01:47;44.24;41.61;45.86;;
11999;Laerm;40817;51.520;9.954;2023-01-19T05:04:16;45.97;41.89;63.29;;
11999;Laerm;40817;51.520;9.954;2023-01-19T05:06:44;46.73;42.22;65.49;;
11999;Laerm;40817;51.520;9.954;2023-01-19T05:09:11;44.60;41.46;46.71;;
11999;Laerm;40817;51.520;9.954;2023-01-19T05:11:40;44.53;42.16;48.23;;
11999;Laerm;40817;51.520;9.954;2023-01-19T05:14:08;44.57;42.22;47.81;;
11999;Laerm;40817;51.520;9.954;2023-01-19T05:16:36;45.06;42.59;51.09;;
11999;Laerm;40817;51.520;9.954;2023-01-19T05:19:04;44.78;42.03;50.87;;
11999;Laerm;40817;51.520;9.954;2023-01-19T05:21:33;44.59;41.68;48.36;;
11999;Laerm;40817;51.520;9.954;2023-01-19T05:24:00;51.52;42.41;66.78;;
11999;Laerm;40817;51.520;9.954;2023-01-19T05:26:28;45.67;43.09;53.68;;
11999;Laerm;40817;51.520;9.954;2023-01-19T05:28:55;44.77;42.47;48.80;;
11999;Laerm;40817;51.520;9.954;2023-01-19T05:31:25;44.94;42.03;50.83;;
11999;Laerm;40817;51.520;9.954;2023-01-19T05:33:53;44.69;41.68;52.00;;
11999;Laerm;40817;51.520;9.954;2023-01-19T05:36:20;44.98;42.82;53.43;;
11999;Laerm;40817;51.520;9.954;2023-01-19T05:38:49;45.16;42.16;51.97;;
11999;Laerm;40817;51.520;9.954;2023-01-19T05:41:17;45.78;43.09;50.30;;
11999;Laerm;40817;51.520;9.954;2023-01-19T05:43:45;45.53;43.34;52.54;;
11999;Laerm;40817;51.520;9.954;2023-01-19T05:46:19;45.04;41.89;50.85;;
11999;Laerm;40817;51.520;9.954;2023-01-19T05:48:47;45.18;43.09;53.17;;
11999;Laerm;40817;51.520;9.954;2023-01-19T05:51:18;45.32;42.35;60.31;;
11999;Laerm;40817;51.520;9.954;2023-01-19T05:53:50;45.39;43.09;54.85;;
11999;Laerm;40817;51.520;9.954;2023-01-19T05:56:18;45.64;42.22;54.90;;
11999;Laerm;40817;51.520;9.954;2023-01-19T05:58:46;45.66;42.59;58.88;;
11999;Laerm;40817;51.520;9.954;2023-01-19T06:01:14;45.56;42.88;51.25;;
11999;Laerm;40817;51.520;9.954;2023-01-19T06:03:42;45.54;43.14;55.35;;
11999;Laerm;40817;51.520;9.954;2023-01-19T06:06:09;60.52;42.65;79.42;;
11999;Laerm;40817;51.520;9.954;2023-01-19T06:08:38;47.91;42.41;70.10;;
11999;Laerm;40817;51.520;9.954;2023-01-19T06:11:08;45.78;42.47;54.27;;
11999;Laerm;40817;51.520;9.954;2023-01-19T06:13:35;45.04;42.79;59.55;;
11999;Laerm;40817;51.520;9.954;2023-01-19T06:16:06;44.88;41.89;51.91;;
11999;Laerm;40817;51.520;9.954;2023-01-19T06:18:34;44.95;42.65;50.61;;
11999;Laerm;40817;51.520;9.954;2023-01-19T06:21:04;45.01;42.41;50.21;;
11999;Laerm;40817;51.520;9.954;2023-01-19T06:23:34;45.13;42.82;50.53;;
11999;Laerm;40817;51.520;9.954;2023-01-19T06:26:02;47.53;43.14;62.33;;
11999;Laerm;40817;51.520;9.954;2023-01-19T06:28:31;47.03;43.19;65.54;;
11999;Laerm;40817;51.520;9.954;2023-01-19T06:30:59;45.09;42.65;51.93;;
11999;Laerm;40817;51.520;9.954;2023-01-19T06:33:30;48.43;43.34;69.98;;
11999;Laerm;40817;51.520;9.954;2023-01-19T06:35:57;45.16;42.53;50.87;;
11999;Laerm;40817;51.520;9.954;2023-01-19T06:38:25;45.42;42.90;51.54;;
11999;Laerm;40817;51.520;9.954;2023-01-19T06:40:56;46.19;42.41;63.37;;
11999;Laerm;40817;51.520;9.954;2023-01-19T06:43:25;46.12;42.41;64.26;;
11999;Laerm;40817;51.520;9.954;2023-01-19T06:45:55;45.34;42.82;53.29;;
11999;Laerm;40817;51.520;9.954;2023-01-19T06:48:23;45.48;42.41;66.80;;
11999;Laerm;40817;51.520;9.954;2023-01-19T06:50:51;45.31;42.65;57.43;;
11999;Laerm;40817;51.520;9.954;2023-01-19T06:53:19;45.59;43.19;51.08;;
11999;Laerm;40817;51.520;9.954;2023-01-19T06:55:48;46.38;41.53;57.98;;
11999;Laerm;40817;51.520;9.954;2023-01-19T06:58:16;45.39;42.53;54.87;;
11999;Laerm;40817;51.520;9.954;2023-01-19T07:00:44;45.22;42.88;50.18;;
11999;Laerm;40817;51.520;9.954;2023-01-19T07:03:19;46.70;43.24;62.57;;
11999;Laerm;40817;51.520;9.954;2023-01-19T07:05:51;45.91;43.04;61.57;;
11999;Laerm;40817;51.520;9.954;2023-01-19T07:08:20;46.42;43.72;53.85;;
11999;Laerm;40817;51.520;9.954;2023-01-19T07:10:47;45.98;42.71;56.66;;
11999;Laerm;40817;51.520;9.954;2023-01-19T07:13:15;47.25;43.29;60.86;;
11999;Laerm;40817;51.520;9.954;2023-01-19T07:15:43;49.97;43.54;63.05;;
11999;Laerm;40817;51.520;9.954;2023-01-19T07:18:11;45.84;42.47;55.32;;
11999;Laerm;40817;51.520;9.954;2023-01-19T07:20:40;53.54;43.09;69.79;;
11999;Laerm;40817;51.520;9.954;2023-01-19T07:23:10;46.25;43.44;55.30;;
11999;Laerm;40817;51.520;9.954;2023-01-19T07:25:37;46.28;43.04;58.10;;
11999;Laerm;40817;51.520;9.954;2023-01-19T07:28:06;45.74;43.14;53.26;;
11999;Laerm;40817;51.520;9.954;2023-01-19T07:30:34;46.85;43.34;62.05;;
11999;Laerm;40817;51.520;9.954;2023-01-19T07:33:02;47.58;43.54;58.30;;
11999;Laerm;40817;51.520;9.954;2023-01-19T07:35:30;47.13;42.53;66.93;;
11999;Laerm;40817;51.520;9.954;2023-01-19T07:37:59;45.61;42.93;60.85;;
11999;Laerm;40817;51.520;9.954;2023-01-19T07:40:27;45.34;42.47;49.69;;
11999;Laerm;40817;51.520;9.954;2023-01-19T07:42:55;44.94;42.41;48.38;;
11999;Laerm;40817;51.520;9.954;2023-01-19T07:45:22;44.78;42.35;54.12;;
11999;Laerm;40817;51.520;9.954;2023-01-19T07:47:50;45.33;42.03;60.90;;
11999;Laerm;40817;51.520;9.954;2023-01-19T07:50:18;44.89;41.96;60.31;;
11999;Laerm;40817;51.520;9.954;2023-01-19T07:52:50;44.76;42.09;53.65;;
11999;Laerm;40817;51.520;9.954;2023-01-19T07:55:21;45.42;42.41;55.48;;
11999;Laerm;40817;51.520;9.954;2023-01-19T07:57:50;45.79;41.75;55.59;;
11999;Laerm;40817;51.520;9.954;2023-01-19T08:00:19;45.51;42.47;56.17;;
11999;Laerm;40817;51.520;9.954;2023-01-19T08:02:51;46.47;42.88;57.46;;
11999;Laerm;40817;51.520;9.954;2023-01-19T08:05:19;45.42;43.09;51.96;;
11999;Laerm;40817;51.520;9.954;2023-01-19T08:07:47;45.28;42.93;52.93;;
11999;Laerm;40817;51.520;9.954;2023-01-19T08:10:17;45.13;42.71;50.41;;
11999;Laerm;40817;51.520;9.954;2023-01-19T08:12:49;45.58;42.35;58.02;;
11999;Laerm;40817;51.520;9.954;2023-01-19T08:15:18;45.83;42.41;59.68;;
11999;Laerm;40817;51.520;9.954;2023-01-19T08:17:55;46.02;42.93;67.66;;
11999;Laerm;40817;51.520;9.954;2023-01-19T08:20:24;45.72;42.98;55.07;;
11999;Laerm;40817;51.520;9.954;2023-01-19T08:22:53;45.00;42.41;49.49;;
11999;Laerm;40817;51.520;9.954;2023-01-19T08:25:30;44.98;42.16;52.00;;
11999;Laerm;40817;51.520;9.954;2023-01-19T08:28:01;46.86;43.14;55.67;;
11999;Laerm;40817;51.520;9.954;2023-01-19T08:30:29;45.95;43.34;50.31;;
11999;Laerm;40817;51.520;9.954;2023-01-19T08:32:57;47.97;43.81;60.21;;
11999;Laerm;40817;51.520;9.954;2023-01-19T08:35:29;46.18;43.09;53.00;;
11999;Laerm;40817;51.520;9.954;2023-01-19T08:37:57;46.31;43.58;59.45;;
11999;Laerm;40817;51.520;9.954;2023-01-19T08:40:27;45.95;43.54;51.29;;
11999;Laerm;40817;51.520;9.954;2023-01-19T08:42:59;46.15;43.68;50.56;;
11999;Laerm;40817;51.520;9.954;2023-01-19T08:45:29;46.64;43.39;62.48;;
11999;Laerm;40817;51.520;9.954;2023-01-19T08:47:58;46.51;43.44;58.52;;
11999;Laerm;40817;51.520;9.954;2023-01-19T08:50:27;45.63;42.53;59.06;;
11999;Laerm;40817;51.520;9.954;2023-01-19T08:52:55;45.84;42.88;58.25;;
11999;Laerm;40817;51.520;9.954;2023-01-19T08:55:23;46.75;42.82;62.59;;
11999;Laerm;40817;51.520;9.954;2023-01-19T08:57:52;45.03;42.22;58.72;;
11999;Laerm;40817;51.520;9.954;2023-01-19T09:00:22;44.99;42.95;58.35;;
11999;Laerm;40817;51.520;9.954;2023-01-19T09:02:53;47.14;42.29;61.00;;
11999;Laerm;40817;51.520;9.954;2023-01-19T09:05:22;45.68;42.03;59.44;;
11999;Laerm;40817;51.520;9.954;2023-01-19T09:07:50;45.44;42.41;57.69;;
11999;Laerm;40817;51.520;9.954;2023-01-19T09:10:18;45.40;42.88;58.60;;
11999;Laerm;40817;51.520;9.954;2023-01-19T09:12:46;45.15;42.65;57.42;;
11999;Laerm;40817;51.520;9.954;2023-01-19T09:15:14;45.33;41.96;56.82;;
11999;Laerm;40817;51.520;9.954;2023-01-19T09:17:44;44.86;41.94;52.21;;
11999;Laerm;40817;51.520;9.954;2023-01-19T09:20:12;44.58;42.03;49.12;;
11999;Laerm;40817;51.520;9.954;2023-01-19T09:22:40;45.18;41.89;58.11;;
11999;Laerm;40817;51.520;9.954;2023-01-19T09:25:08;45.86;41.89;55.89;;
11999;Laerm;40817;51.520;9.954;2023-01-19T09:27:36;46.20;43.46;52.94;;
11999;Laerm;40817;51.520;9.954;2023-01-19T09:30:06;47.22;43.09;59.15;;
11999;Laerm;40817;51.520;9.954;2023-01-19T09:32:36;45.27;42.47;55.50;;
11999;Laerm;40817;51.520;9.954;2023-01-19T09:35:06;44.67;42.16;48.98;;
11999;Laerm;40817;51.520;9.954;2023-01-19T09:37:34;44.40;42.03;51.14;;
11999;Laerm;40817;51.520;9.954;2023-01-19T09:40:02;44.39;42.09;50.71;;
11999;Laerm;40817;51.520;9.954;2023-01-19T09:42:36;44.37;40.23;56.25;;
11999;Laerm;40817;51.520;9.954;2023-01-19T09:45:15;44.56;40.62;54.12;;
11999;Laerm;40817;51.520;9.954;2023-01-19T09:47:46;44.47;41.68;56.90;;
11999;Laerm;40817;51.520;9.954;2023-01-19T09:50:25;45.35;42.16;55.56;;
11999;Laerm;40817;51.520;9.954;2023-01-19T09:53:00;44.84;42.41;59.09;;
11999;Laerm;40817;51.520;9.954;2023-01-19T09:55:30;46.98;42.82;69.68;;
11999;Laerm;40817;51.520;9.954;2023-01-19T09:57:58;47.83;43.04;73.10;;
11999;Laerm;40817;51.520;9.954;2023-01-19T10:00:27;46.70;42.98;67.61;;
11999;Laerm;40817;51.520;9.954;2023-01-19T10:03:03;47.85;43.04;68.17;;
11999;Laerm;40817;51.520;9.954;2023-01-19T10:05:43;49.29;43.34;71.26;;
11999;Laerm;40817;51.520;9.954;2023-01-19T10:08:20;46.08;42.88;67.61;;
11999;Laerm;40817;51.520;9.954;2023-01-19T10:10:53;45.00;41.82;68.13;;
11999;Laerm;40817;51.520;9.954;2023-01-19T10:13:34;44.79;41.68;65.35;;
11999;Laerm;40817;51.520;9.954;2023-01-19T10:16:31;45.06;42.22;67.29;;
11999;Laerm;40817;51.520;9.954;2023-01-19T10:19:19;45.55;42.22;64.54;;
11999;Laerm;40817;51.520;9.954;2023-01-19T10:21:49;45.19;42.41;67.75;;
11999;Laerm;40817;51.520;9.954;2023-01-19T10:24:24;46.15;42.22;68.18;;
11999;Laerm;40817;51.520;9.954;2023-01-19T10:26:55;45.45;41.89;66.69;;
11999;Laerm;40817;51.520;9.954;2023-01-19T10:29:29;47.17;42.71;67.49;;
11999;Laerm;40817;51.520;9.954;2023-01-19T10:32:07;46.61;42.22;67.78;;
11999;Laerm;40817;51.520;9.954;2023-01-19T10:34:36;50.00;42.53;76.00;;
11999;Laerm;40817;51.520;9.954;2023-01-19T10:37:20;49.65;42.65;74.59;;
11999;Laerm;40817;51.520;9.954;2023-01-19T10:39:53;54.24;42.35;78.31;;
11999;Laerm;40817;51.520;9.954;2023-01-19T10:42:22;48.69;42.59;75.52;;
11999;Laerm;40817;51.520;9.954;2023-01-19T10:44:52;46.62;42.98;63.63;;
11999;Laerm;40817;51.520;9.954;2023-01-19T10:47:21;47.45;42.98;61.52;;
11999;Laerm;40817;51.520;9.954;2023-01-19T10:49:50;45.84;42.76;65.27;;
11999;Laerm;40817;51.520;9.954;2023-01-19T10:52:28;45.46;42.09;60.91;;
11999;Laerm;40817;51.520;9.954;2023-01-19T10:54:57;46.55;42.22;59.21;;
11999;Laerm;40817;51.520;9.954;2023-01-19T10:57:30;52.63;43.14;72.09;;
11999;Laerm;40817;51.520;9.954;2023-01-19T10:59:58;52.34;43.39;66.66;;
11999;Laerm;40817;51.520;9.954;2023-01-19T11:02:29;54.71;45.75;64.78;;
11999;Laerm;40817;51.520;9.954;2023-01-19T11:04:59;45.81;42.76;62.91;;
11999;Laerm;40817;51.520;9.954;2023-01-19T11:07:32;45.65;42.71;64.62;;
11999;Laerm;40817;51.520;9.954;2023-01-19T11:10:22;45.53;42.03;60.13;;
11999;Laerm;40817;51.520;9.954;2023-01-19T11:13:02;45.66;42.59;58.85;;
11999;Laerm;40817;51.520;9.954;2023-01-19T11:15:39;44.68;42.29;55.81;;
11999;Laerm;40817;51.520;9.954;2023-01-19T11:18:10;45.19;42.65;55.48;;
11999;Laerm;40817;51.520;9.954;2023-01-19T11:20:51;46.55;42.53;60.11;;
11999;Laerm;40817;51.520;9.954;2023-01-19T11:23:27;45.52;42.03;59.67;;
11999;Laerm;40817;51.520;9.954;2023-01-19T11:25:59;45.00;42.59;66.42;;
11999;Laerm;40817;51.520;9.954;2023-01-19T11:28:31;46.98;42.09;66.93;;
11999;Laerm;40817;51.520;9.954;2023-01-19T11:31:16;45.48;42.29;56.23;;
11999;Laerm;40817;51.520;9.954;2023-01-19T11:33:50;45.39;41.38;57.96;;
11999;Laerm;40817;51.520;9.954;2023-01-19T11:36:21;44.83;42.22;50.44;;
11999;Laerm;40817;51.520;9.954;2023-01-19T11:38:53;45.60;42.41;61.23;;
11999;Laerm;40817;51.520;9.954;2023-01-19T11:41:27;45.53;42.76;66.06;;
11999;Laerm;40817;51.520;9.954;2023-01-19T11:43:59;46.03;42.88;61.85;;
11999;Laerm;40817;51.520;9.954;2023-01-19T11:46:32;44.88;42.59;53.64;;
11999;Laerm;40817;51.520;9.954;2023-01-19T11:49:11;57.56;42.53;75.02;;
11999;Laerm;40817;51.520;9.954;2023-01-19T11:51:51;46.26;42.16;60.62;;
11999;Laerm;40817;51.520;9.954;2023-01-19T11:54:32;45.13;42.16;55.47;;
11999;Laerm;40817;51.520;9.954;2023-01-19T11:57:02;45.25;42.41;62.14;;
11999;Laerm;40817;51.520;9.954;2023-01-19T11:59:33;44.86;42.88;54.53;;
11999;Laerm;40817;51.520;9.954;2023-01-19T12:02:14;44.77;41.61;57.69;;
11999;Laerm;40817;51.520;9.954;2023-01-19T12:04:45;45.54;42.35;58.36;;
11999;Laerm;40817;51.520;9.954;2023-01-19T12:07:18;44.48;41.96;50.62;;
11999;Laerm;40817;51.520;9.954;2023-01-19T12:09:51;44.81;42.29;55.47;;
11999;Laerm;40817;51.520;9.954;2023-01-19T12:12:28;44.95;42.03;58.88;;
11999;Laerm;40817;51.520;9.954;2023-01-19T12:15:03;45.65;42.53;58.86;;
11999;Laerm;40817;51.520;9.954;2023-01-19T12:17:36;44.63;42.09;59.80;;
11999;Laerm;40817;51.520;9.954;2023-01-19T12:20:23;45.43;42.29;60.52;;
11999;Laerm;40817;51.520;9.954;2023-01-19T12:23:02;44.73;41.46;60.07;;
11999;Laerm;40817;51.520;9.954;2023-01-19T12:26:03;46.42;42.22;59.32;;
11999;Laerm;40817;51.520;9.954;2023-01-19T12:28:36;45.17;42.09;58.24;;
11999;Laerm;40817;51.520;9.954;2023-01-19T12:31:05;44.88;42.53;62.24;;
11999;Laerm;40817;51.520;9.954;2023-01-19T12:33:35;44.76;41.22;61.57;;
11999;Laerm;40817;51.520;9.954;2023-01-19T12:36:09;44.87;41.82;59.88;;
11999;Laerm;40817;51.520;9.954;2023-01-19T12:38:50;45.94;42.09;62.45;;
11999;Laerm;40817;51.520;9.954;2023-01-19T12:41:27;45.13;41.96;59.97;;
11999;Laerm;40817;51.520;9.954;2023-01-19T12:44:26;45.28;41.68;59.83;;
11999;Laerm;40817;51.520;9.954;2023-01-19T12:46:56;45.66;41.82;64.05;;
11999;Laerm;40817;51.520;9.954;2023-01-19T12:49:39;47.39;42.24;65.20;;
11999;Laerm;40817;51.520;9.954;2023-01-19T12:52:30;54.71;42.22;77.59;;
11999;Laerm;40817;51.520;9.954;2023-01-19T12:55:14;44.40;41.68;59.99;;
11999;Laerm;40817;51.520;9.954;2023-01-19T12:57:54;44.19;40.98;63.47;;
11999;Laerm;40817;51.520;9.954;2023-01-19T13:00:35;44.62;41.75;59.63;;
11999;Laerm;40817;51.520;9.954;2023-01-19T13:03:42;44.92;40.89;59.71;;
11999;Laerm;40817;51.520;9.954;2023-01-19T13:06:09;44.88;41.22;60.42;;
11999;Laerm;40817;51.520;9.954;2023-01-19T13:08:59;44.59;41.75;63.64;;
11999;Laerm;40817;51.520;9.954;2023-01-19T13:11:27;44.44;41.82;59.28;;
11999;Laerm;40817;51.520;9.954;2023-01-19T13:14:36;44.79;41.46;58.93;;
11999;Laerm;40817;51.520;9.954;2023-01-19T13:17:32;44.66;42.09;64.14;;
11999;Laerm;40817;51.520;9.954;2023-01-19T13:20:25;45.15;42.59;59.55;;
11999;Laerm;40817;51.520;9.954;2023-01-19T13:23:24;44.67;41.46;59.71;;
11999;Laerm;40817;51.520;9.954;2023-01-19T13:26:03;45.14;41.89;66.26;;
11999;Laerm;40817;51.520;9.954;2023-01-19T13:28:40;44.93;42.22;59.35;;
11999;Laerm;40817;51.520;9.954;2023-01-19T13:31:10;44.73;41.46;59.34;;
11999;Laerm;40817;51.520;9.954;2023-01-19T13:33:49;45.02;41.53;64.09;;
11999;Laerm;40817;51.520;9.954;2023-01-19T13:36:23;46.24;41.89;68.83;;
11999;Laerm;40817;51.520;9.954;2023-01-19T13:38:52;45.21;41.96;65.32;;
11999;Laerm;40817;51.520;9.954;2023-01-19T13:41:24;45.13;41.75;65.06;;
11999;Laerm;40817;51.520;9.954;2023-01-19T13:44:00;45.01;42.35;64.37;;
11999;Laerm;40817;51.520;9.954;2023-01-19T13:46:30;45.17;41.75;65.04;;
11999;Laerm;40817;51.520;9.954;2023-01-19T13:49:04;45.00;40.98;65.94;;
11999;Laerm;40817;51.520;9.954;2023-01-19T13:51:39;44.89;41.81;64.55;;
11999;Laerm;40817;51.520;9.954;2023-01-19T13:54:15;44.73;41.75;64.48;;
11999;Laerm;40817;51.520;9.954;2023-01-19T13:56:47;44.60;41.75;58.35;;
11999;Laerm;40817;51.520;9.954;2023-01-19T13:59:15;45.32;42.59;63.68;;
11999;Laerm;40817;51.520;9.954;2023-01-19T14:01:45;48.44;41.06;68.75;;
11999;Laerm;40817;51.520;9.954;2023-01-19T14:04:29;46.16;42.03;63.36;;
11999;Laerm;40817;51.520;9.954;2023-01-19T14:07:02;46.27;42.35;59.55;;
11999;Laerm;40817;51.520;9.954;2023-01-19T14:09:31;45.21;41.75;58.88;;
11999;Laerm;40817;51.520;9.954;2023-01-19T14:12:23;44.87;41.61;66.67;;